TFM - Tactical Decision Aid
ID: Runway Winds: CIG/VIS Threshold:

KSTL - St Louis/Lambert Int, MO, US

Updated at: 2044 UTC 17 Jun 2019
Latest TAF at: 1902 UTC 17 Jun 2019

TAF Board

Time1951Z 17/21Z 17/22Z 17/23Z 18/00Z 18/01Z 18/02Z 18/03Z 18/04Z 18/05Z 18/06Z 18/07Z 18/08Z 18/09Z>>
Type OBS PRVL
  [TEMP]  
PRVL
  [TEMP]  
PRVL PRVL PRVL PRVL PRVL PRVL PRVL PRVL PRVL PRVL PRVL
VIS 4 >6
  [4]  
>6
  [4]  
>6 >6 >6 >6 >6 >6 >6 >6 >6 >6 5
CIG 5 40
  [6]  
40
  [6]  
40 40 40 40 80 80 80 80 80 80 23
Cover OVC OVC
  [OVC]  
OVC
  [OVC]  
OVC OVC OVC OVC BKN BKN BKN BKN BKN BKN BKN
FltCat IFR VFR
  [IFR]  
VFR
  [IFR]  
VFR VFR VFR VFR VFR VFR VFR VFR VFR VFR MVFR
WX -RA BR VCTS
  [TSRA BR]  
VCTS
  [TSRA BR]  
VCTS VCTS VCTS VCTS -- -- -- -- -- -- BR
WDir 40 50
[50]
50
[50]
50 50 50 50 VRB VRB VRB VRB VRB VRB VRB
WSpd 9 7
  [7]  
7
  [7]  
7 7 7 7 3 3 3 3 3 3 3
WGst -- --
  [--]  
--
  [--]  
-- -- -- -- -- -- -- -- -- -- --

TDA Impact Legend

  None Marginal Slight Moderate High
Visibility (sm) >5 3≤X≤5 1≤X<3 0.5≤X<1 <0.5
Ceiling (100 ft) >30 10≤X≤30 4≤X<10 2≤X<4 <2
Wind Speed (kt) <15 15≤X<25 25≤X<30 ≥30
Wind Gust (kt) <15 15≤X<25 25≤X<35 ≥35
Weather No Wx Reported VCTS -TS,-FZRA TS,FZRA +TS,+FZRA
TAF
KSTL 171902Z 1719/1824 05007KT P6SM VCTS SCT015CB OVC040
  TEMPO 1719/1723 4SM TSRA BR BKN006 OVC015CB
  FM180300 VRB03KT P6SM BKN080
  FM180900 VRB03KT 5SM BR BKN023
  FM181200 VRB04KT P6SM BKN012
  FM181800 VRB04KT P6SM BKN040


METAR
KSTL 171951Z 04009KT 4SM -RA BR OVC005 23/21 A2994 RMK AO2 SLP130 P0000 T02280206
KSTL 171851Z 04008KT 4SM -RA BR BKN006 BKN013 OVC024 23/21 A2995 RMK AO2 SLP132 P0000 T02280211
KSTL 171826Z 02007KT 6SM -RA BR BKN010 BKN026 OVC100 23/21 A2995 RMK AO2 LTG DSNT E P0000 T02280206
KSTL 171751Z 04006KT 7SM -RA SCT022 BKN033 OVC130 23/21 A2995 RMK AO2 LTG DSNT E AND SW AND W TSE47 SLP133 P0011 60011 T02280206 10233 20217 51002
KSTL 171748Z COR 04007KT 7SM -RA SCT022 BKN033 OVC130 23/21 A2995 RMK AO2 LTG DSNT E AND SW AND W TSE47 P0011

Radar Display
Forecast Discussion